createdAt,value
2022-09-25T00:00:45.111Z,10.24
2022-09-25T00:03:13.277Z,10.23
2022-09-25T00:05:41.868Z,10.25
2022-09-25T00:08:10.139Z,10.27
2022-09-25T00:10:48.017Z,10.29
2022-09-25T00:13:16.658Z,10.17
2022-09-25T00:15:52.222Z,10.14
2022-09-25T00:18:42.698Z,10.09
2022-09-25T00:21:12.697Z,10.05
2022-09-25T00:23:40.095Z,9.98
2022-09-25T00:26:08.208Z,9.97
2022-09-25T00:28:39.369Z,10.01
2022-09-25T00:31:08.089Z,10.06
2022-09-25T00:33:35.160Z,10.04
2022-09-25T00:36:10.295Z,10.16
2022-09-25T00:38:38.476Z,10.24
2022-09-25T00:41:07.120Z,10.17
2022-09-25T00:43:53.521Z,10.16
2022-09-25T00:46:22.626Z,10.14
2022-09-25T00:48:57.597Z,10.16
2022-09-25T00:51:29.578Z,10.18
2022-09-25T00:54:01.818Z,10.20
2022-09-25T00:56:31.798Z,10.21
2022-09-25T00:58:58.829Z,10.24
2022-09-25T01:01:25.588Z,10.26
2022-09-25T01:03:52.452Z,10.29
2022-09-25T01:06:19.435Z,10.29
2022-09-25T01:08:46.621Z,10.30
2022-09-25T01:11:13.189Z,10.28
2022-09-25T01:13:41.587Z,10.25
2022-09-25T01:16:20.454Z,10.24
2022-09-25T01:18:49.900Z,10.22
2022-09-25T01:21:21.308Z,10.28
2022-09-25T01:24:00.047Z,10.24
2022-09-25T01:26:51.813Z,10.14
2022-09-25T01:29:31.267Z,10.13
2022-09-25T01:32:13.995Z,10.14
2022-09-25T01:35:07.815Z,10.12
2022-09-25T01:37:53.677Z,10.12
2022-09-25T01:40:25.828Z,10.12
2022-09-25T01:43:11.489Z,10.14
2022-09-25T01:45:56.738Z,10.11
2022-09-25T01:48:27.054Z,10.10
2022-09-25T01:50:57.847Z,10.07
2022-09-25T01:53:41.758Z,10.08
2022-09-25T01:56:22.166Z,10.08
2022-09-25T01:58:55.237Z,10.10
2022-09-25T02:01:27.439Z,10.06
2022-09-25T02:04:00.207Z,10.01
2022-09-25T02:06:27.503Z,9.96
2022-09-25T02:09:28.076Z,9.98
2022-09-25T02:11:59.129Z,9.99
2022-09-25T02:14:38.545Z,9.92
2022-09-25T02:17:11.126Z,9.87
2022-09-25T02:19:56.526Z,9.83
2022-09-25T02:22:28.744Z,9.73
2022-09-25T02:25:06.893Z,9.70
2022-09-25T02:27:34.125Z,9.74
2022-09-25T02:30:01.433Z,9.70
2022-09-25T02:32:32.598Z,9.67
2022-09-25T02:34:59.966Z,9.67
2022-09-25T02:37:27.243Z,9.69
2022-09-25T02:40:00.548Z,9.71
2022-09-25T02:42:44.920Z,9.69
2022-09-25T02:45:29.851Z,9.65
2022-09-25T02:48:20.720Z,9.57
2022-09-25T02:51:18.076Z,9.46
2022-09-25T02:53:52.910Z,9.47
2022-09-25T02:56:44.097Z,9.47
2022-09-25T02:59:16.829Z,9.51
2022-09-25T03:01:48.050Z,9.49
2022-09-25T03:04:17.725Z,9.54
2022-09-25T03:06:44.982Z,9.54
2022-09-25T03:09:15.445Z,9.50
2022-09-25T03:11:43.656Z,9.49
2022-09-25T03:14:10.942Z,9.56
2022-09-25T03:16:58.037Z,9.52
2022-09-25T03:19:31.332Z,9.48
2022-09-25T03:21:57.912Z,9.59
2022-09-25T03:24:24.713Z,9.56
2022-09-25T03:26:51.548Z,9.53
2022-09-25T03:29:18.101Z,9.54
2022-09-25T03:31:45.630Z,9.51
2022-09-25T03:34:13.889Z,9.54
2022-09-25T03:36:41.256Z,9.46
2022-09-25T03:39:10.673Z,9.36
2022-09-25T03:41:37.536Z,9.31
2022-09-25T03:44:04.363Z,9.23
2022-09-25T03:46:34.136Z,9.24
2022-09-25T03:49:01.983Z,9.30
2022-09-25T03:51:31.254Z,9.33
2022-09-25T03:53:58.159Z,9.35
2022-09-25T03:56:27.147Z,9.38
2022-09-25T03:58:56.791Z,9.41
2022-09-25T04:01:25.030Z,9.40
2022-09-25T04:03:51.976Z,9.42
2022-09-25T04:06:24.402Z,9.47
2022-09-25T04:08:52.170Z,9.43
2022-09-25T04:11:20.105Z,9.43
2022-09-25T04:13:47.468Z,9.46
2022-09-25T04:16:16.569Z,9.49
2022-09-25T04:18:43.844Z,9.45
2022-09-25T04:21:12.866Z,9.40
2022-09-25T04:23:39.876Z,9.37
2022-09-25T04:26:07.495Z,9.30
2022-09-25T04:28:34.350Z,9.30
2022-09-25T04:31:02.048Z,9.25
2022-09-25T04:33:47.439Z,9.16
2022-09-25T04:36:16.159Z,9.16
2022-09-25T04:38:43.874Z,9.18
2022-09-25T04:41:10.633Z,9.14
2022-09-25T04:43:37.199Z,9.08
2022-09-25T04:46:08.892Z,9.06
2022-09-25T04:48:35.861Z,9.08
2022-09-25T04:51:06.216Z,9.07
2022-09-25T04:53:35.537Z,9.06
2022-09-25T04:56:05.362Z,9.15
2022-09-25T04:58:32.136Z,9.15
2022-09-25T05:01:06.606Z,9.16
2022-09-25T05:03:33.390Z,9.08
2022-09-25T05:06:00.193Z,9.10
2022-09-25T05:08:27.820Z,9.09
2022-09-25T05:10:54.475Z,9.04
2022-09-25T05:13:21.022Z,9.07
2022-09-25T05:15:47.662Z,9.06
2022-09-25T05:18:22.203Z,9.11
2022-09-25T05:20:49.909Z,9.12
2022-09-25T05:23:17.367Z,9.11
2022-09-25T05:25:44.104Z,9.13
2022-09-25T05:28:11.395Z,9.15
2022-09-25T05:30:38.947Z,9.22
2022-09-25T05:33:05.766Z,9.16
2022-09-25T05:35:33.511Z,9.14
2022-09-25T05:38:00.368Z,9.06
2022-09-25T05:40:27.796Z,9.05
2022-09-25T05:42:55.385Z,9.04
2022-09-25T05:45:23.451Z,9.04
2022-09-25T05:47:59.947Z,9.05
2022-09-25T05:50:27.047Z,9.07
2022-09-25T05:53:00.645Z,9.11
2022-09-25T05:55:27.527Z,9.06
2022-09-25T05:57:54.164Z,9.08
2022-09-25T06:00:20.804Z,9.09
2022-09-25T06:02:52.072Z,9.16
2022-09-25T06:05:18.772Z,9.24
2022-09-25T06:07:45.313Z,9.29
2022-09-25T06:10:11.855Z,9.35
2022-09-25T06:12:38.435Z,9.39
2022-09-25T06:15:05.510Z,9.43
2022-09-25T06:17:32.106Z,9.43
2022-09-25T06:19:58.652Z,9.47
2022-09-25T06:22:25.202Z,9.46
2022-09-25T06:24:51.843Z,9.46
2022-09-25T06:27:18.417Z,9.42
2022-09-25T06:29:44.961Z,9.53
2022-09-25T06:32:11.520Z,9.61
2022-09-25T06:34:38.049Z,9.72
2022-09-25T06:37:04.603Z,9.81
2022-09-25T06:39:33.220Z,9.88
2022-09-25T06:41:59.871Z,10.00
2022-09-25T06:44:28.191Z,10.11
2022-09-25T06:46:54.740Z,10.16
2022-09-25T06:49:21.924Z,10.24
2022-09-25T06:51:50.866Z,10.29
2022-09-25T06:54:17.803Z,10.42
2022-09-25T06:56:44.674Z,10.46
2022-09-25T06:59:11.215Z,10.44
2022-09-25T07:01:37.833Z,10.50
2022-09-25T07:04:04.447Z,10.46
2022-09-25T07:06:32.993Z,10.44
2022-09-25T07:08:59.532Z,10.43
2022-09-25T07:11:28.188Z,10.45
2022-09-25T07:13:55.474Z,10.49
2022-09-25T07:16:27.508Z,10.54
2022-09-25T07:18:56.201Z,10.67
2022-09-25T07:21:24.667Z,10.82
2022-09-25T07:23:52.240Z,10.98
2022-09-25T07:26:23.866Z,11.09
2022-09-25T07:28:55.175Z,11.24
2022-09-25T07:31:27.794Z,11.32
2022-09-25T07:33:55.073Z,11.41
2022-09-25T07:36:22.239Z,11.43
2022-09-25T07:38:50.615Z,11.49
2022-09-25T07:41:18.788Z,11.49
2022-09-25T07:43:45.759Z,11.61
2022-09-25T07:46:12.734Z,11.71
2022-09-25T07:48:39.578Z,11.81
2022-09-25T07:51:08.623Z,11.85
2022-09-25T07:53:35.204Z,11.96
2022-09-25T07:56:06.595Z,12.09
2022-09-25T07:58:35.429Z,12.16
2022-09-25T08:01:04.342Z,12.21
2022-09-25T08:03:31.492Z,12.23
2022-09-25T08:05:59.626Z,12.34
2022-09-25T08:08:29.930Z,12.37
2022-09-25T08:11:06.708Z,12.39
2022-09-25T08:13:34.291Z,12.34
2022-09-25T08:16:21.630Z,12.37
2022-09-25T08:18:49.728Z,12.35
2022-09-25T08:21:19.143Z,12.35
2022-09-25T08:23:51.041Z,12.46
2022-09-25T08:26:18.899Z,12.60
2022-09-25T08:28:45.419Z,12.79
2022-09-25T08:31:14.572Z,12.98
2022-09-25T08:33:49.235Z,13.37
2022-09-25T08:36:17.416Z,13.70
2022-09-25T08:38:45.165Z,13.84
2022-09-25T08:41:19.121Z,14.01
2022-09-25T08:43:57.424Z,13.86
2022-09-25T08:46:54.723Z,13.89
2022-09-25T08:49:26.284Z,13.61
2022-09-25T08:51:58.710Z,13.34
2022-09-25T08:54:27.930Z,13.69
2022-09-25T08:57:04.924Z,13.67
2022-09-25T08:59:34.117Z,13.76
2022-09-25T09:02:03.789Z,13.62
2022-09-25T09:04:35.904Z,13.49
2022-09-25T09:07:26.878Z,13.41
2022-09-25T09:10:03.047Z,13.41
2022-09-25T09:12:41.470Z,13.62
2022-09-25T09:15:27.725Z,14.12
2022-09-25T09:17:55.406Z,14.18
2022-09-25T09:20:38.373Z,14.51
2022-09-25T09:23:07.919Z,15.17
2022-09-25T09:25:55.343Z,15.52
2022-09-25T09:28:27.751Z,14.78
2022-09-25T09:31:12.761Z,14.58
2022-09-25T09:34:13.044Z,14.32
2022-09-25T09:37:02.392Z,14.16
2022-09-25T09:39:42.452Z,14.56
2022-09-25T09:42:26.484Z,14.81
2022-09-25T09:45:16.444Z,14.85
2022-09-25T09:48:09.380Z,15.22
2022-09-25T09:50:52.942Z,16.47
2022-09-25T09:53:50.926Z,16.52
2022-09-25T09:56:25.451Z,16.37
2022-09-25T09:59:00.087Z,15.98
2022-09-25T10:01:46.776Z,16.01
2022-09-25T10:04:24.241Z,16.06
2022-09-25T10:06:57.237Z,16.20
2022-09-25T10:09:25.973Z,16.33
2022-09-25T10:12:03.618Z,16.48
2022-09-25T10:14:36.005Z,16.76
2022-09-25T10:17:04.657Z,16.61
2022-09-25T10:19:53.820Z,16.53
2022-09-25T10:22:25.954Z,16.45
2022-09-25T10:25:01.857Z,17.38
2022-09-25T10:27:37.198Z,17.29
2022-09-25T10:30:06.868Z,17.39
2022-09-25T10:32:46.573Z,17.41
2022-09-25T10:35:19.393Z,16.94
2022-09-25T10:37:51.618Z,17.00
2022-09-25T10:40:29.301Z,17.29
2022-09-25T10:43:04.996Z,17.65
2022-09-25T10:45:34.705Z,17.63
2022-09-25T10:48:20.191Z,17.86
2022-09-25T10:51:06.191Z,17.94
2022-09-25T10:53:33.224Z,17.89
2022-09-25T10:56:12.400Z,17.76
2022-09-25T10:58:47.665Z,17.83
2022-09-25T11:01:16.205Z,17.88
2022-09-25T11:03:45.753Z,18.20
2022-09-25T11:06:30.168Z,17.79
2022-09-25T11:09:13.835Z,17.70
2022-09-25T11:11:41.197Z,17.65
2022-09-25T11:14:19.309Z,17.80
2022-09-25T11:16:55.341Z,18.92
2022-09-25T11:19:28.917Z,20.05
2022-09-25T11:22:19.907Z,20.51
2022-09-25T11:25:01.818Z,20.85
2022-09-25T11:27:49.803Z,20.29
2022-09-25T11:30:21.520Z,19.86
2022-09-25T11:32:52.456Z,19.88
2022-09-25T11:35:25.616Z,19.46
2022-09-25T11:38:10.475Z,18.69
2022-09-25T11:41:12.997Z,18.52
2022-09-25T11:43:52.054Z,19.67
2022-09-25T11:46:43.910Z,19.62
2022-09-25T11:49:24.267Z,19.19
2022-09-25T11:52:06.115Z,18.73
2022-09-25T11:54:54.433Z,17.97
2022-09-25T11:57:34.426Z,17.62
2022-09-25T12:00:04.856Z,17.54
2022-09-25T12:02:53.126Z,17.45
2022-09-25T12:05:55.460Z,17.47
2022-09-25T12:08:41.355Z,17.22
2022-09-25T12:11:37.963Z,17.12
2022-09-25T12:14:52.650Z,16.50
2022-09-25T12:17:40.889Z,16.16
2022-09-25T12:20:26.019Z,15.74
2022-09-25T12:23:04.872Z,15.72
2022-09-25T12:25:31.625Z,15.59
2022-09-25T12:28:26.358Z,15.40
2022-09-25T12:31:12.086Z,15.14
2022-09-25T12:34:00.862Z,15.06
2022-09-25T12:36:42.995Z,15.13
2022-09-25T12:39:33.956Z,14.88
2022-09-25T12:42:12.669Z,14.82
2022-09-25T12:44:55.044Z,14.77
2022-09-25T12:47:35.066Z,14.69
2022-09-25T12:50:16.861Z,14.62
2022-09-25T12:52:43.420Z,14.63
2022-09-25T12:55:21.191Z,14.54
2022-09-25T12:58:25.989Z,14.51
2022-09-25T13:00:59.667Z,14.43
2022-09-25T13:03:44.934Z,14.48
2022-09-25T13:06:28.396Z,14.44
2022-09-25T13:09:07.447Z,14.52
2022-09-25T13:11:47.764Z,14.59
2022-09-25T13:14:33.012Z,14.59
2022-09-25T13:17:01.244Z,14.59
2022-09-25T13:19:35.178Z,14.57
2022-09-25T13:22:09.156Z,14.38
2022-09-25T13:24:44.598Z,14.19
2022-09-25T13:27:17.630Z,14.12
2022-09-25T13:29:51.284Z,14.04
2022-09-25T13:32:23.166Z,14.07
2022-09-25T13:34:56.547Z,14.21
2022-09-25T13:37:33.594Z,14.35
2022-09-25T13:40:20.988Z,14.12
2022-09-25T13:42:47.789Z,14.09
2022-09-25T13:45:34.239Z,14.28
2022-09-25T13:48:32.295Z,14.45
2022-09-25T13:51:30.499Z,14.55
2022-09-25T13:54:09.681Z,14.63
2022-09-25T13:56:42.195Z,14.59
2022-09-25T13:59:17.593Z,14.67
2022-09-25T14:01:54.051Z,14.84
2022-09-25T14:04:27.754Z,14.95
2022-09-25T14:07:03.573Z,15.16
2022-09-25T14:09:32.038Z,15.92
2022-09-25T14:12:10.136Z,17.58
2022-09-25T14:14:51.825Z,18.51
2022-09-25T14:17:19.730Z,20.16
2022-09-25T14:19:50.999Z,21.28
2022-09-25T14:22:52.140Z,21.11
2022-09-25T14:25:46.825Z,19.72
2022-09-25T14:28:18.781Z,18.89
2022-09-25T14:30:53.014Z,18.39
2022-09-25T14:33:45.178Z,17.72
2022-09-25T14:36:50.519Z,17.14
2022-09-25T14:39:23.044Z,16.86
2022-09-25T14:42:01.680Z,16.36
2022-09-25T14:44:44.675Z,15.72
2022-09-25T14:47:14.905Z,15.44
2022-09-25T14:49:45.542Z,15.50
2022-09-25T14:52:18.748Z,15.37
2022-09-25T14:54:47.713Z,15.14
2022-09-25T14:57:25.207Z,15.13
2022-09-25T14:59:56.778Z,15.09
2022-09-25T15:02:34.128Z,15.14
2022-09-25T15:05:23.981Z,14.95
2022-09-25T15:07:52.792Z,14.80
2022-09-25T15:10:24.204Z,14.79
2022-09-25T15:12:51.573Z,14.80
2022-09-25T15:15:18.613Z,14.67
2022-09-25T15:17:50.768Z,14.94
2022-09-25T15:20:23.225Z,15.15
2022-09-25T15:22:58.554Z,15.50
2022-09-25T15:25:31.177Z,15.66
2022-09-25T15:27:59.287Z,15.71
2022-09-25T15:30:27.833Z,15.62
2022-09-25T15:33:00.514Z,15.64
2022-09-25T15:35:28.704Z,15.58
2022-09-25T15:38:11.585Z,15.25
2022-09-25T15:40:39.248Z,15.14
2022-09-25T15:43:14.204Z,14.94
2022-09-25T15:45:48.368Z,14.90
2022-09-25T15:48:22.803Z,14.61
2022-09-25T15:50:50.241Z,14.42
2022-09-25T15:53:32.931Z,14.39
2022-09-25T15:56:15.526Z,14.37
2022-09-25T15:59:05.616Z,14.24
2022-09-25T16:01:53.043Z,14.09
2022-09-25T16:04:41.399Z,13.99
2022-09-25T16:07:36.239Z,14.02
2022-09-25T16:10:26.445Z,14.05
2022-09-25T16:12:53.082Z,13.90
2022-09-25T16:15:29.729Z,13.79
2022-09-25T16:18:05.203Z,13.73
2022-09-25T16:20:41.191Z,13.65
2022-09-25T16:23:24.688Z,13.67
2022-09-25T16:25:51.262Z,13.51
2022-09-25T16:28:24.895Z,13.41
2022-09-25T16:31:05.922Z,13.42
2022-09-25T16:33:37.675Z,13.37
2022-09-25T16:36:17.011Z,13.53
2022-09-25T16:39:08.319Z,13.56
2022-09-25T16:41:36.829Z,13.55
2022-09-25T16:44:23.192Z,13.26
2022-09-25T16:46:52.592Z,13.13
2022-09-25T16:49:22.923Z,12.94
2022-09-25T16:51:52.188Z,12.87
2022-09-25T16:54:21.309Z,12.69
2022-09-25T16:56:48.980Z,12.58
2022-09-25T16:59:25.544Z,12.48
2022-09-25T17:01:55.804Z,12.38
2022-09-25T17:04:26.211Z,12.35
2022-09-25T17:06:54.268Z,12.28
2022-09-25T17:09:20.880Z,12.27
2022-09-25T17:11:51.794Z,12.16
2022-09-25T17:14:23.622Z,12.18
2022-09-25T17:16:51.706Z,12.14
2022-09-25T17:19:19.163Z,12.08
2022-09-25T17:21:51.251Z,12.07
2022-09-25T17:24:20.293Z,12.06
2022-09-25T17:26:47.288Z,12.08
2022-09-25T17:29:13.932Z,12.04
2022-09-25T17:31:40.783Z,12.06
2022-09-25T17:34:17.885Z,12.05
2022-09-25T17:36:45.281Z,12.09
2022-09-25T17:39:12.302Z,12.00
2022-09-25T17:41:39.861Z,12.01
2022-09-25T17:44:08.621Z,12.05
2022-09-25T17:46:36.277Z,12.03
2022-09-25T17:49:03.854Z,11.99
2022-09-25T17:51:30.804Z,12.02
2022-09-25T17:53:59.336Z,11.99
2022-09-25T17:56:29.414Z,11.96
2022-09-25T17:58:57.618Z,12.02
2022-09-25T18:01:29.589Z,12.01
2022-09-25T18:03:58.928Z,11.88
2022-09-25T18:07:06.538Z,11.80
2022-09-25T18:09:39.603Z,11.70
2022-09-25T18:12:06.111Z,11.65
2022-09-25T18:14:34.095Z,11.64
2022-09-25T18:17:00.656Z,11.60
2022-09-25T18:19:45.837Z,11.74
2022-09-25T18:22:19.056Z,11.69
2022-09-25T18:24:47.284Z,11.70
2022-09-25T18:27:15.616Z,11.66
2022-09-25T18:29:44.512Z,11.66
2022-09-25T18:32:11.512Z,11.71
2022-09-25T18:34:38.086Z,11.68
2022-09-25T18:37:04.784Z,11.68
2022-09-25T18:39:31.558Z,11.61
2022-09-25T18:41:58.212Z,11.52
2022-09-25T18:44:24.796Z,11.51
2022-09-25T18:46:51.884Z,11.47
2022-09-25T18:49:19.106Z,11.45
2022-09-25T18:51:45.957Z,11.49
2022-09-25T18:54:14.048Z,11.51
2022-09-25T18:56:41.062Z,11.46
2022-09-25T18:59:07.952Z,11.46
2022-09-25T19:01:35.647Z,11.44
2022-09-25T19:04:02.487Z,11.41
2022-09-25T19:06:30.929Z,11.42
2022-09-25T19:08:58.177Z,11.44
2022-09-25T19:11:26.661Z,11.46
2022-09-25T19:13:53.507Z,11.59
2022-09-25T19:16:21.024Z,11.41
2022-09-25T19:18:50.061Z,11.31
2022-09-25T19:21:23.516Z,11.24
2022-09-25T19:23:50.492Z,11.23
2022-09-25T19:26:20.872Z,11.14
2022-09-25T19:28:48.277Z,11.09
2022-09-25T19:31:20.891Z,11.04
2022-09-25T19:33:47.912Z,11.00
2022-09-25T19:36:26.369Z,10.94
2022-09-25T19:38:54.558Z,10.86
2022-09-25T19:41:26.148Z,10.76
2022-09-25T19:43:54.434Z,10.74
2022-09-25T19:46:21.017Z,10.74
2022-09-25T19:48:48.664Z,10.77
2022-09-25T19:51:19.024Z,10.81
2022-09-25T19:53:46.184Z,10.72
2022-09-25T19:56:13.063Z,10.71
2022-09-25T19:58:40.178Z,10.61
2022-09-25T20:01:14.957Z,10.55
2022-09-25T20:03:42.062Z,10.47
2022-09-25T20:06:09.952Z,10.43
2022-09-25T20:08:37.525Z,10.43
2022-09-25T20:11:22.137Z,10.47
2022-09-25T20:13:50.911Z,10.35
2022-09-25T20:16:19.985Z,10.39
2022-09-25T20:18:51.521Z,10.42
2022-09-25T20:21:21.182Z,10.41
2022-09-25T20:23:56.932Z,10.39
2022-09-25T20:26:24.263Z,10.34
2022-09-25T20:28:53.244Z,10.36
2022-09-25T20:31:20.718Z,10.46
2022-09-25T20:33:47.550Z,10.39
2022-09-25T20:36:15.243Z,10.38
2022-09-25T20:38:42.194Z,10.31
2022-09-25T20:41:13.067Z,10.30
2022-09-25T20:43:40.907Z,10.28
2022-09-25T20:46:12.795Z,10.31
2022-09-25T20:48:41.888Z,10.34
2022-09-25T20:51:11.139Z,10.43
2022-09-25T20:53:38.625Z,10.35
2022-09-25T20:56:06.494Z,10.33
2022-09-25T20:58:34.195Z,10.30
2022-09-25T21:01:13.107Z,10.44
2022-09-25T21:03:44.466Z,10.31
2022-09-25T21:06:15.759Z,10.21
2022-09-25T21:08:42.788Z,10.22
2022-09-25T21:11:11.672Z,10.19
2022-09-25T21:13:39.923Z,10.15
2022-09-25T21:16:09.547Z,10.14
2022-09-25T21:18:37.306Z,10.14
2022-09-25T21:21:06.572Z,10.15
2022-09-25T21:23:33.553Z,10.12
2022-09-25T21:26:11.798Z,10.12
2022-09-25T21:28:43.214Z,10.19
2022-09-25T21:31:21.927Z,10.09
2022-09-25T21:33:52.341Z,10.14
2022-09-25T21:36:19.611Z,10.18
2022-09-25T21:38:46.151Z,10.10
2022-09-25T21:41:16.007Z,10.11
2022-09-25T21:43:43.106Z,10.04
2022-09-25T21:46:16.125Z,10.04
2022-09-25T21:48:50.864Z,10.05
2022-09-25T21:51:19.072Z,10.12
2022-09-25T21:53:45.700Z,10.07
2022-09-25T21:56:20.930Z,10.08
2022-09-25T21:58:47.672Z,10.06
2022-09-25T22:01:18.504Z,10.04
2022-09-25T22:03:50.674Z,10.05
2022-09-25T22:06:20.323Z,10.02
2022-09-25T22:08:49.592Z,10.08
2022-09-25T22:11:17.249Z,10.09
2022-09-25T22:13:45.600Z,10.08
2022-09-25T22:16:27.197Z,10.07
2022-09-25T22:18:55.696Z,10.10
2022-09-25T22:21:24.844Z,10.10
2022-09-25T22:23:51.477Z,10.09
2022-09-25T22:26:18.915Z,10.08
2022-09-25T22:28:45.877Z,10.07
2022-09-25T22:31:18.792Z,10.09
2022-09-25T22:33:46.634Z,10.14
2022-09-25T22:36:14.043Z,10.13
2022-09-25T22:38:40.946Z,10.14
2022-09-25T22:41:13.022Z,10.18
2022-09-25T22:43:40.822Z,10.18
2022-09-25T22:46:09.776Z,10.11
2022-09-25T22:48:37.196Z,10.10
2022-09-25T22:51:15.152Z,10.11
2022-09-25T22:53:42.645Z,10.12
2022-09-25T22:56:11.154Z,10.15
2022-09-25T22:58:38.018Z,10.20
2022-09-25T23:01:09.125Z,10.19
2022-09-25T23:03:35.805Z,10.15
2022-09-25T23:06:03.628Z,10.14
2022-09-25T23:08:30.816Z,10.15
2022-09-25T23:11:08.845Z,10.23
2022-09-25T23:13:36.523Z,10.19
2022-09-25T23:16:09.054Z,10.18
2022-09-25T23:18:36.661Z,10.16
2022-09-25T23:21:03.887Z,10.13
2022-09-25T23:23:30.738Z,10.10
2022-09-25T23:26:03.400Z,10.13
2022-09-25T23:28:32.868Z,10.08
2022-09-25T23:31:08.282Z,10.13
2022-09-25T23:33:35.551Z,10.11
2022-09-25T23:36:10.370Z,10.24
2022-09-25T23:38:37.169Z,10.12
2022-09-25T23:41:14.353Z,10.12
2022-09-25T23:43:41.122Z,10.20
2022-09-25T23:46:07.894Z,10.39
2022-09-25T23:48:35.027Z,10.23
2022-09-25T23:51:01.830Z,10.15
2022-09-25T23:53:28.405Z,10.10
2022-09-25T23:55:55.004Z,10.03
2022-09-25T23:58:21.938Z,9.99
